createdAt,value
2018-12-22T00:00:44.518Z,97243.23
2018-12-22T00:05:46.769Z,97287.24
2018-12-22T00:10:48.994Z,97280.73
2018-12-22T00:15:51.332Z,97274.18
2018-12-22T00:20:53.629Z,97271.11
2018-12-22T00:25:55.875Z,97271.32
2018-12-22T00:30:58.144Z,97291.45
2018-12-22T00:36:00.441Z,97283.30
2018-12-22T00:41:02.853Z,97274.02
2018-12-22T00:46:05.109Z,97284.74
2018-12-22T00:51:07.414Z,97261.89
2018-12-22T00:56:09.672Z,97285.38
2018-12-22T01:01:12.042Z,97296.38
2018-12-22T01:06:15.244Z,97300.13
2018-12-22T01:11:17.472Z,97314.84
2018-12-22T01:16:19.878Z,97324.94
2018-12-22T01:21:23.017Z,97314.16
2018-12-22T01:26:25.241Z,97325.06
2018-12-22T01:31:28.158Z,97314.66
2018-12-22T01:36:30.398Z,97330.71
2018-12-22T01:41:32.653Z,97368.61
2018-12-22T01:46:34.965Z,97344.67
2018-12-22T01:51:37.197Z,97358.48
2018-12-22T01:56:39.486Z,97356.50
2018-12-22T02:01:41.725Z,97349.88
2018-12-22T02:06:43.949Z,97361.77
2018-12-22T02:11:47.304Z,97353.03
2018-12-22T02:16:49.605Z,97374.84
2018-12-22T02:21:53.093Z,97377.48
2018-12-22T02:26:55.315Z,97378.05
2018-12-22T02:31:58.570Z,97375.86
2018-12-22T02:37:00.835Z,97380.30
2018-12-22T02:42:03.117Z,97381.64
2018-12-22T02:47:05.689Z,97382.08
2018-12-22T02:52:08.072Z,97387.00
2018-12-22T02:57:10.341Z,97388.10
2018-12-22T03:02:12.576Z,97387.00
2018-12-22T03:07:15.012Z,97393.63
2018-12-22T03:12:17.237Z,97402.76
2018-12-22T03:17:19.633Z,97389.19
2018-12-22T03:22:21.959Z,97404.62
2018-12-22T03:27:24.354Z,97389.66
2018-12-22T03:32:26.787Z,97384.64
2018-12-22T03:37:29.095Z,97388.27
2018-12-22T03:42:31.364Z,97382.30
2018-12-22T03:47:33.702Z,97376.72
2018-12-22T03:52:35.997Z,97376.44
2018-12-22T03:57:38.240Z,97385.39
2018-12-22T04:02:40.488Z,97377.29
2018-12-22T04:07:42.746Z,97387.63
2018-12-22T04:12:45.116Z,97387.96
2018-12-22T04:17:47.388Z,97395.97
2018-12-22T04:22:49.656Z,97384.34
2018-12-22T04:27:51.945Z,97397.88
2018-12-22T04:32:54.308Z,97403.97
2018-12-22T04:37:56.585Z,97407.19
2018-12-22T04:42:58.831Z,97402.19
2018-12-22T04:48:01.218Z,97404.86
2018-12-22T04:53:03.521Z,97406.38
2018-12-22T04:58:05.958Z,97404.41
2018-12-22T05:03:08.178Z,97396.40
2018-12-22T05:08:10.495Z,97401.25
2018-12-22T05:13:13.426Z,97407.42
2018-12-22T05:18:15.661Z,97413.14
2018-12-22T05:23:17.901Z,97419.03
2018-12-22T05:28:20.152Z,97417.25
2018-12-22T05:33:22.460Z,97412.86
2018-12-22T05:38:24.813Z,97410.06
2018-12-22T05:43:27.244Z,97421.28
2018-12-22T05:48:29.486Z,97427.68
2018-12-22T05:53:31.842Z,97422.41
2018-12-22T05:58:34.085Z,97426.66
2018-12-22T06:03:36.318Z,97422.20
2018-12-22T06:08:38.685Z,97420.56
2018-12-22T06:13:41.285Z,97418.75
2018-12-22T06:18:43.529Z,97413.03
2018-12-22T06:23:45.813Z,97415.74
2018-12-22T06:28:48.087Z,97411.41
2018-12-22T06:33:50.471Z,97407.02
2018-12-22T06:38:52.719Z,97410.95
2018-12-22T06:43:55.049Z,97398.64
2018-12-22T06:48:57.385Z,97397.98
2018-12-22T06:53:59.627Z,97401.67
2018-12-22T06:59:03.358Z,97410.92
2018-12-22T07:04:09.431Z,97398.31
2018-12-22T07:09:11.857Z,97401.53
2018-12-22T07:14:14.085Z,97405.50
2018-12-22T07:19:16.372Z,97404.64
2018-12-22T07:24:18.687Z,97413.72
2018-12-22T07:29:20.951Z,97394.97
2018-12-22T07:34:23.246Z,97409.48
2018-12-22T07:39:25.484Z,97408.51
2018-12-22T07:44:27.837Z,97405.98
2018-12-22T07:49:30.064Z,97391.26
2018-12-22T07:54:33.307Z,97404.08
2018-12-22T07:59:35.613Z,97400.09
2018-12-22T08:04:37.852Z,97390.29
2018-12-22T08:09:40.061Z,97404.57
2018-12-22T08:14:42.393Z,97414.42
2018-12-22T08:19:44.782Z,97387.95
2018-12-22T08:24:47.021Z,97400.53
2018-12-22T08:29:49.317Z,97407.94
2018-12-22T08:34:59.191Z,97405.33
2018-12-22T08:40:01.637Z,97423.48
2018-12-22T08:45:05.010Z,97432.08
2018-12-22T08:50:09.688Z,97456.48
2018-12-22T08:55:12.246Z,97441.93
2018-12-22T09:00:14.998Z,97442.73
2018-12-22T09:05:17.313Z,97464.31
2018-12-22T09:10:19.657Z,97469.44
2018-12-22T09:15:23.902Z,97474.48
2018-12-22T09:20:26.171Z,97492.70
2018-12-22T09:25:29.437Z,97490.45
2018-12-22T09:30:31.806Z,97496.73
2018-12-22T09:35:34.047Z,97497.58
2018-12-22T09:40:36.320Z,97494.27
2018-12-22T09:45:38.565Z,97509.45
2018-12-22T09:50:40.789Z,97518.97
2018-12-22T09:55:43.195Z,97514.93
2018-12-22T10:00:45.587Z,97522.56
2018-12-22T10:05:50.699Z,97517.20
2018-12-22T10:10:52.941Z,97543.64
2018-12-22T10:15:55.244Z,97529.09
2018-12-22T10:20:57.511Z,97532.55
2018-12-22T10:25:59.883Z,97584.98
2018-12-22T10:31:03.641Z,97557.39
2018-12-22T10:36:06.359Z,97562.96
2018-12-22T10:41:08.695Z,97579.84
2018-12-22T10:46:12.128Z,97581.59
2018-12-22T10:51:14.358Z,97599.45
2018-12-22T10:56:16.614Z,97598.86
2018-12-22T11:01:26.199Z,97601.51
2018-12-22T11:06:23.206Z,97627.97
2018-12-22T11:11:25.695Z,97662.08
2018-12-22T11:16:27.937Z,97681.41
2018-12-22T11:21:30.185Z,97693.38
2018-12-22T11:26:33.020Z,97712.36
2018-12-22T11:31:35.498Z,97706.00
2018-12-22T11:36:37.781Z,97741.52
2018-12-22T11:41:40.091Z,97753.50
2018-12-22T11:46:42.582Z,97761.89
2018-12-22T11:51:45.169Z,97790.20
2018-12-22T11:56:47.397Z,97783.91
2018-12-22T12:01:49.847Z,97790.70
2018-12-22T12:06:52.263Z,97800.20
2018-12-22T12:11:54.512Z,97808.39
2018-12-22T12:18:08.818Z,97827.04
2018-12-22T12:23:11.057Z,97864.20
2018-12-22T12:28:13.469Z,97873.44
2018-12-22T12:33:15.788Z,97881.33
2018-12-22T12:38:18.049Z,97898.94
2018-12-22T12:43:20.534Z,97898.47
2018-12-22T12:48:24.181Z,97911.55
2018-12-22T12:53:26.433Z,97918.53
2018-12-22T12:58:28.681Z,97935.03
2018-12-22T13:03:30.973Z,97956.01
2018-12-22T13:08:33.208Z,97961.23
2018-12-22T13:13:42.158Z,97971.73
2018-12-22T13:18:44.410Z,97996.48
2018-12-22T13:23:46.703Z,97997.59
2018-12-22T13:28:48.984Z,98027.03
2018-12-22T13:33:51.317Z,98029.41
2018-12-22T13:39:04.707Z,98044.50
2018-12-22T13:44:06.946Z,98058.30
2018-12-22T13:49:09.337Z,98056.87
2018-12-22T13:54:12.696Z,98067.63
2018-12-22T13:59:14.921Z,98085.62
2018-12-22T14:04:17.193Z,98087.56
2018-12-22T14:09:19.521Z,98101.39
2018-12-22T14:14:25.607Z,98107.93
2018-12-22T14:19:27.956Z,98109.47
2018-12-22T14:24:39.771Z,98125.44
2018-12-22T14:29:42.391Z,98125.50
2018-12-22T14:34:49.139Z,98140.97
2018-12-22T14:39:51.489Z,98146.23
2018-12-22T14:44:53.725Z,98148.23
2018-12-22T14:49:55.972Z,98157.42
2018-12-22T15:00:27.602Z,98160.92
2018-12-22T15:05:29.942Z,98158.63
2018-12-22T15:10:33.860Z,98167.14
2018-12-22T15:15:36.413Z,98176.97
2018-12-22T15:20:38.737Z,98178.47
2018-12-22T15:25:40.967Z,98179.53
2018-12-22T15:30:43.258Z,98194.13
2018-12-22T15:35:45.629Z,98191.02
2018-12-22T15:40:47.924Z,98201.09
2018-12-22T15:45:50.225Z,98210.23
2018-12-22T15:50:52.486Z,98198.34
2018-12-22T15:55:54.972Z,98207.78
2018-12-22T16:00:57.431Z,98197.81
2018-12-22T16:05:59.921Z,98202.45
2018-12-22T16:11:02.421Z,98206.41
2018-12-22T16:16:05.102Z,98197.11
2018-12-22T16:21:07.537Z,98212.77
2018-12-22T16:26:09.952Z,98206.82
2018-12-22T16:31:12.427Z,98212.58
2018-12-22T16:36:15.267Z,98226.86
2018-12-22T16:41:17.553Z,98219.30
2018-12-22T16:46:20.009Z,98231.20
2018-12-22T16:51:22.366Z,98243.19
2018-12-22T16:56:24.645Z,98237.85
2018-12-22T17:01:40.028Z,98248.08
2018-12-22T17:06:42.324Z,98253.34
2018-12-22T17:11:44.597Z,98267.42
2018-12-22T17:16:47.304Z,98270.70
2018-12-22T17:21:55.377Z,98283.53
2018-12-22T17:26:58.665Z,98280.21
2018-12-22T17:32:01.146Z,98292.13
2018-12-22T17:37:03.656Z,98296.02
2018-12-22T17:42:06.466Z,98300.14
2018-12-22T17:47:08.746Z,98305.60
2018-12-22T17:52:11.021Z,98294.37
2018-12-22T17:57:13.775Z,98300.27
2018-12-22T18:02:16.144Z,98292.94
2018-12-22T18:07:18.502Z,98303.68
2018-12-22T18:12:20.778Z,98317.08
2018-12-22T18:17:23.064Z,98317.27
2018-12-22T18:22:25.376Z,98328.63
2018-12-22T18:27:27.718Z,98334.95
2018-12-22T18:32:29.973Z,98333.50
2018-12-22T18:37:32.322Z,98346.41
2018-12-22T18:42:34.594Z,98348.62
2018-12-22T18:47:37.069Z,98347.44
2018-12-22T18:52:39.299Z,98347.00
2018-12-22T18:57:41.575Z,98355.47
2018-12-22T19:02:43.945Z,98354.58
2018-12-22T19:07:46.208Z,98367.55
2018-12-22T19:12:48.811Z,98368.23
2018-12-22T19:17:55.128Z,98361.03
2018-12-22T19:22:58.021Z,98367.81
2018-12-22T19:28:00.350Z,98367.55
2018-12-22T19:33:02.582Z,98375.59
2018-12-22T19:38:05.029Z,98364.66
2018-12-22T19:43:07.430Z,98365.48
2018-12-22T19:48:09.641Z,98367.17
2018-12-22T19:53:12.056Z,98365.48
2018-12-22T19:58:14.271Z,98366.97
2018-12-22T20:03:16.498Z,98374.25
2018-12-22T20:08:18.794Z,98380.84
2018-12-22T20:13:21.314Z,98377.64
2018-12-22T20:18:23.682Z,98374.05
2018-12-22T20:23:25.948Z,98373.53
2018-12-22T20:28:28.243Z,98388.33
2018-12-22T20:33:30.586Z,98399.97
2018-12-22T20:38:32.849Z,98403.03
2018-12-22T20:43:35.207Z,98407.32
2018-12-22T20:48:37.414Z,98406.92
2018-12-22T20:53:39.621Z,98414.21
2018-12-22T20:58:41.830Z,98416.28
2018-12-22T21:03:44.291Z,98446.16
2018-12-22T21:08:46.724Z,98427.98
2018-12-22T21:13:48.939Z,98436.70
2018-12-22T21:18:51.205Z,98428.41
2018-12-22T21:23:53.432Z,98440.16
2018-12-22T21:28:55.828Z,98462.08
2018-12-22T21:33:58.060Z,98473.48
2018-12-22T21:39:00.575Z,98478.84
2018-12-22T21:44:02.917Z,98487.87
2018-12-22T21:49:05.454Z,98486.44
2018-12-22T21:54:07.835Z,98488.25
2018-12-22T21:59:10.877Z,98497.06
2018-12-22T22:04:13.550Z,98504.47
2018-12-22T22:09:19.257Z,98509.58
2018-12-22T22:14:23.051Z,98513.38
2018-12-22T22:19:26.402Z,98515.70
2018-12-22T22:24:28.722Z,98519.88
2018-12-22T22:29:32.170Z,98522.61
2018-12-22T22:34:34.534Z,98536.11
2018-12-22T22:39:36.967Z,98547.33
2018-12-22T22:44:39.671Z,98552.54
2018-12-22T22:49:41.969Z,98565.77
2018-12-22T22:54:44.260Z,98567.75
2018-12-22T22:59:46.579Z,98579.05
2018-12-22T23:04:54.340Z,98573.84
2018-12-22T23:09:53.173Z,98581.83
2018-12-22T23:14:55.463Z,98586.03
2018-12-22T23:19:57.756Z,98585.02
2018-12-22T23:24:59.968Z,98585.02
2018-12-22T23:30:02.686Z,98600.28
2018-12-22T23:35:06.261Z,98598.41
2018-12-22T23:40:08.716Z,98600.41
2018-12-22T23:45:10.962Z,98592.13
2018-12-22T23:50:13.194Z,98597.09
2018-12-22T23:55:15.701Z,98590.32
